Time;durP1;ratioP1;P1;durP2;ratioP2;P2;SDS_P1;SDS_P2;PMS_P1;PMS_P2;Temp;Humidity;BMP_temperature;BMP_pressure;BME280_temperature;BME280_humidity;BME280_pressure;Samples;Min_cycle;Max_cycle;Signal;HPM_P1;HPM_P2
2022/03/24 00:01:38;;;;;;;29.10;21.02;;;9.00;65.80;;;;;;5095170;28;20212;-67
2022/03/24 00:04:05;;;;;;;32.42;19.50;;;9.00;66.20;;;;;;5095234;28;20293;-68
2022/03/24 00:06:32;;;;;;;27.77;19.50;;;9.00;66.10;;;;;;5095036;28;20212;-68
2022/03/24 00:09:00;;;;;;;30.63;19.98;;;9.00;65.80;;;;;;5094845;28;20245;-68
2022/03/24 00:11:27;;;;;;;26.17;20.25;;;9.10;65.70;;;;;;5094968;28;20572;-69
2022/03/24 00:13:54;;;;;;;27.42;20.83;;;9.10;65.80;;;;;;5094569;28;20316;-70
2022/03/24 00:16:21;;;;;;;27.38;20.20;;;9.10;66.10;;;;;;5093752;28;20240;-69
2022/03/24 00:18:48;;;;;;;27.08;20.02;;;9.20;66.10;;;;;;5094630;28;20222;-68
2022/03/24 00:21:16;;;;;;;27.27;19.63;;;9.20;65.60;;;;;;5094768;28;20659;-68
2022/03/24 00:23:42;;;;;;;26.67;19.75;;;9.10;66.20;;;;;;5094535;28;20210;-68
2022/03/24 00:26:11;;;;;;;25.45;19.40;;;9.00;66.70;;;;;;5094966;28;20206;-68
2022/03/24 00:28:38;;;;;;;31.38;20.80;;;8.90;67.00;;;;;;5094397;28;20236;-68
2022/03/24 00:31:05;;;;;;;29.95;20.65;;;8.90;67.70;;;;;;5094718;28;20210;-68
2022/03/24 00:33:32;;;;;;;28.70;20.27;;;8.80;68.10;;;;;;5094414;28;20578;-70
2022/03/24 00:35:59;;;;;;;30.08;20.33;;;8.80;68.50;;;;;;5094114;28;20225;-68
2022/03/24 00:38:26;;;;;;;31.15;20.75;;;8.60;68.60;;;;;;5086470;28;20226;-69
2022/03/24 00:40:55;;;;;;;30.40;20.48;;;8.50;69.00;;;;;;5088090;28;20232;-69
2022/03/24 00:43:24;;;;;;;29.25;20.92;;;8.50;69.50;;;;;;5093903;28;20229;-68
2022/03/24 00:45:52;;;;;;;28.73;21.08;;;8.50;69.10;;;;;;5094274;28;20209;-69
2022/03/24 00:48:19;;;;;;;28.10;19.90;;;8.40;69.90;;;;;;5094086;28;20223;-68
2022/03/24 00:50:46;;;;;;;31.60;22.05;;;8.30;69.80;;;;;;5094079;28;20202;-69
2022/03/24 00:53:13;;;;;;;29.27;22.52;;;8.30;70.60;;;;;;5094147;28;20216;-69
2022/03/24 00:55:41;;;;;;;33.92;22.98;;;8.20;71.20;;;;;;5093748;28;20557;-69
2022/03/24 00:58:08;;;;;;;31.38;21.75;;;8.20;71.60;;;;;;5094197;28;20236;-69
2022/03/24 01:00:37;;;;;;;31.15;21.08;;;8.20;71.50;;;;;;5094162;28;20664;-69
2022/03/24 01:03:06;;;;;;;30.33;20.50;;;8.30;71.30;;;;;;5093878;28;20598;-69
2022/03/24 01:05:34;;;;;;;29.60;21.08;;;8.30;71.30;;;;;;5093694;28;20871;-69
2022/03/24 01:08:01;;;;;;;27.50;18.52;;;8.40;70.80;;;;;;5093782;28;20741;-69
2022/03/24 01:10:28;;;;;;;27.67;20.98;;;8.40;71.20;;;;;;5093653;28;20209;-68
2022/03/24 01:12:55;;;;;;;29.50;20.30;;;8.40;71.70;;;;;;5094001;28;20205;-69
2022/03/24 01:15:23;;;;;;;30.13;20.35;;;8.30;72.80;;;;;;5093503;28;20229;-69
2022/03/24 01:17:51;;;;;;;26.38;19.80;;;8.30;72.30;;;;;;5093556;28;20218;-69
2022/03/24 01:20:19;;;;;;;29.25;20.40;;;8.20;72.20;;;;;;5093841;28;20206;-69
2022/03/24 01:22:46;;;;;;;29.15;20.70;;;8.10;72.30;;;;;;5093459;28;20210;-69
2022/03/24 01:25:14;;;;;;;29.58;20.80;;;8.00;72.50;;;;;;5093553;28;20204;-69
2022/03/24 01:27:41;;;;;;;29.85;20.42;;;8.10;72.70;;;;;;5094807;28;20233;-69
2022/03/24 01:30:09;;;;;;;28.42;19.73;;;8.10;72.70;;;;;;5095122;28;20281;-69
2022/03/24 01:32:37;;;;;;;29.58;21.15;;;8.20;73.00;;;;;;5094780;28;20202;-69
2022/03/24 01:35:07;;;;;;;31.63;20.38;;;8.10;72.90;;;;;;5094578;28;20222;-69
2022/03/24 01:37:34;;;;;;;33.80;20.75;;;8.00;72.90;;;;;;5094798;28;20309;-69
2022/03/24 01:40:02;;;;;;;28.30;20.45;;;7.90;74.00;;;;;;5094774;28;20206;-69
2022/03/24 01:42:29;;;;;;;31.25;19.35;;;7.80;73.60;;;;;;5094989;28;20202;-69
2022/03/24 01:44:58;;;;;;;28.10;20.17;;;7.80;74.10;;;;;;5094609;28;20194;-69
2022/03/24 01:47:25;;;;;;;27.23;19.60;;;7.80;74.70;;;;;;5094502;28;20310;-69
2022/03/24 01:49:53;;;;;;;34.65;19.67;;;7.70;75.10;;;;;;5094594;28;20300;-69
2022/03/24 01:52:24;;;;;;;26.83;19.73;;;7.70;75.50;;;;;;5094256;28;20244;-69
2022/03/24 01:54:54;;;;;;;27.98;19.52;;;7.60;75.90;;;;;;5094312;28;20214;-69
2022/03/24 01:57:21;;;;;;;29.23;19.75;;;7.70;75.50;;;;;;5094398;28;20635;-69
2022/03/24 01:59:49;;;;;;;28.30;18.92;;;7.70;75.00;;;;;;5094117;28;20686;-69
2022/03/24 02:02:16;;;;;;;28.98;19.90;;;7.80;74.40;;;;;;5093973;28;20668;-69
2022/03/24 02:04:43;;;;;;;29.58;20.20;;;7.80;74.00;;;;;;5094312;28;20204;-69
2022/03/24 02:07:11;;;;;;;27.38;19.20;;;7.80;74.10;;;;;;5094295;28;20561;-69
2022/03/24 02:09:40;;;;;;;30.42;20.67;;;7.80;73.90;;;;;;5094047;28;20568;-69
2022/03/24 02:12:09;;;;;;;28.48;18.52;;;7.90;73.60;;;;;;5094273;28;20202;-70
2022/03/24 02:14:36;;;;;;;26.77;19.73;;;7.90;73.60;;;;;;5093887;28;20222;-69
2022/03/24 02:17:04;;;;;;;28.35;19.83;;;7.90;73.60;;;;;;5093809;28;20208;-69
2022/03/24 02:19:31;;;;;;;26.60;19.45;;;7.90;74.30;;;;;;5094159;28;20209;-69
2022/03/24 02:22:04;;;;;;;27.10;18.88;;;8.00;74.20;;;;;;5094036;28;20604;-69
2022/03/24 02:24:31;;;;;;;28.45;20.58;;;7.90;74.10;;;;;;5093726;28;20206;-69
2022/03/24 02:26:59;;;;;;;30.08;20.75;;;7.80;74.50;;;;;;5094039;28;20198;-69
2022/03/24 02:29:26;;;;;;;30.33;19.95;;;7.80;74.60;;;;;;5093824;28;20209;-69
2022/03/24 02:31:53;;;;;;;30.08;19.45;;;7.70;75.00;;;;;;5093918;28;20247;-69
2022/03/24 02:37:10;;;;;;;30.58;20.45;;;7.70;75.50;;;;;;5093606;28;20181;-69
2022/03/24 02:39:39;;;;;;;24.55;19.02;;;7.60;76.70;;;;;;5093422;28;20183;-69
2022/03/24 02:42:09;;;;;;;27.95;19.77;;;7.60;76.50;;;;;;5094008;28;20774;-69
2022/03/24 02:44:36;;;;;;;29.75;20.63;;;7.60;76.90;;;;;;5093656;28;20564;-69
2022/03/24 02:47:06;;;;;;;27.52;20.15;;;7.50;77.30;;;;;;5093608;28;20204;-69
2022/03/24 02:49:35;;;;;;;28.75;20.10;;;7.40;77.40;;;;;;5093505;28;20232;-69
2022/03/24 02:52:02;;;;;;;31.00;20.23;;;7.20;77.60;;;;;;5093595;28;20201;-69
2022/03/24 02:54:32;;;;;;;28.88;20.50;;;7.20;78.00;;;;;;5093269;28;20206;-69
2022/03/24 02:56:59;;;;;;;29.10;19.70;;;7.10;78.30;;;;;;5093667;28;20201;-69
2022/03/24 02:59:26;;;;;;;27.92;19.30;;;7.10;78.60;;;;;;5093675;28;20205;-69
2022/03/24 03:01:54;;;;;;;30.38;21.55;;;7.00;78.70;;;;;;5093599;28;20202;-69
2022/03/24 03:04:22;;;;;;;30.65;20.40;;;7.00;79.20;;;;;;5093166;28;20210;-69
2022/03/24 03:06:49;;;;;;;29.67;20.15;;;6.90;79.50;;;;;;5093478;28;20208;-68
2022/03/24 03:09:18;;;;;;;28.13;18.38;;;6.90;79.70;;;;;;5093299;28;20713;-69
2022/03/24 03:11:47;;;;;;;29.08;19.48;;;7.00;79.30;;;;;;5093295;28;20213;-69
2022/03/24 03:14:15;;;;;;;30.08;20.42;;;7.00;79.20;;;;;;5093036;28;20668;-68
2022/03/24 03:16:44;;;;;;;30.73;19.98;;;6.90;79.40;;;;;;5093262;28;20218;-69
2022/03/24 03:19:11;;;;;;;30.70;21.25;;;6.90;80.40;;;;;;5093076;28;20782;-69
2022/03/24 03:21:39;;;;;;;29.08;19.50;;;6.90;80.20;;;;;;5093389;28;20206;-69
2022/03/24 03:24:08;;;;;;;29.13;19.80;;;6.90;80.00;;;;;;5092999;28;20202;-69
2022/03/24 03:26:35;;;;;;;30.13;19.70;;;6.90;79.40;;;;;;5093251;28;20656;-69
2022/03/24 03:29:06;;;;;;;28.15;20.02;;;7.00;79.30;;;;;;5093172;28;20595;-69
2022/03/24 03:31:33;;;;;;;30.17;19.77;;;7.00;79.10;;;;;;5093297;28;20210;-69
2022/03/24 03:33:59;;;;;;;29.23;20.42;;;7.10;80.10;;;;;;5092816;28;20199;-69
2022/03/24 03:36:26;;;;;;;30.77;20.65;;;7.10;79.90;;;;;;5093388;28;20225;-69
2022/03/24 03:38:53;;;;;;;32.85;20.92;;;7.00;80.20;;;;;;5093263;28;20218;-69
2022/03/24 03:41:22;;;;;;;29.65;19.98;;;7.00;79.60;;;;;;5093238;28;20198;-69
2022/03/24 03:43:49;;;;;;;29.15;19.25;;;7.00;80.40;;;;;;5092933;28;20202;-69
2022/03/24 03:46:18;;;;;;;28.98;20.55;;;7.00;80.50;;;;;;5093259;28;20203;-69
2022/03/24 03:48:45;;;;;;;31.80;20.23;;;6.90;80.30;;;;;;5093008;28;20588;-69
2022/03/24 03:51:13;;;;;;;27.20;19.25;;;6.80;80.90;;;;;;5093477;28;20205;-69
2022/03/24 03:53:40;;;;;;;33.33;20.30;;;6.70;81.90;;;;;;5096722;28;20201;-69
2022/03/24 03:56:08;;;;;;;29.88;20.17;;;6.70;82.60;;;;;;5096656;28;20583;-69
2022/03/24 03:58:35;;;;;;;30.13;20.23;;;6.60;82.60;;;;;;5096416;28;20226;-68
2022/03/24 04:01:03;;;;;;;25.20;18.25;;;6.60;82.40;;;;;;5096656;28;20256;-69
2022/03/24 04:03:33;;;;;;;31.08;19.98;;;6.70;81.90;;;;;;5096483;28;20202;-69
2022/03/24 04:06:04;;;;;;;33.33;20.70;;;6.60;81.90;;;;;;5096689;28;20182;-68
2022/03/24 04:08:32;;;;;;;27.65;19.95;;;6.50;83.00;;;;;;5096520;28;20217;-68
2022/03/24 04:11:00;;;;;;;29.13;20.67;;;6.40;82.90;;;;;;5096516;28;20255;-69
2022/03/24 04:13:28;;;;;;;27.38;20.75;;;6.40;83.60;;;;;;5096140;28;20206;-68
2022/03/24 04:15:55;;;;;;;32.45;21.35;;;6.40;83.70;;;;;;5096051;28;20218;-68
2022/03/24 04:18:23;;;;;;;33.03;21.17;;;6.40;83.70;;;;;;5095969;28;20232;-69
2022/03/24 04:20:52;;;;;;;31.58;19.88;;;6.40;83.50;;;;;;5096041;28;20695;-69
2022/03/24 04:23:19;;;;;;;35.45;21.58;;;6.40;83.90;;;;;;5096147;28;20206;-69
2022/03/24 04:25:47;;;;;;;30.50;21.15;;;6.40;83.90;;;;;;5095904;28;20198;-69
2022/03/24 04:28:14;;;;;;;30.15;20.80;;;6.40;83.40;;;;;;5095838;28;20236;-69
2022/03/24 04:30:42;;;;;;;32.88;21.13;;;6.50;83.00;;;;;;5096069;28;20213;-68
2022/03/24 04:33:10;;;;;;;31.65;21.25;;;6.30;83.90;;;;;;5095626;28;20205;-68
2022/03/24 04:35:37;;;;;;;31.77;20.00;;;6.30;84.70;;;;;;5095984;28;20222;-68
2022/03/24 04:38:08;;;;;;;30.65;21.88;;;6.30;84.60;;;;;;5095614;28;20790;-68
2022/03/24 04:40:35;;;;;;;35.72;21.27;;;6.40;84.10;;;;;;5096162;28;20194;-69
2022/03/24 04:43:03;;;;;;;28.38;20.98;;;6.40;83.60;;;;;;5095477;28;20208;-68
2022/03/24 04:45:32;;;;;;;28.55;20.45;;;6.50;83.80;;;;;;5095768;28;20202;-69
2022/03/24 04:47:59;;;;;;;29.08;20.30;;;6.50;83.90;;;;;;5095459;28;20222;-68
2022/03/24 04:50:26;;;;;;;30.30;20.77;;;6.50;83.80;;;;;;5095470;28;20200;-69
2022/03/24 04:52:53;;;;;;;30.00;20.50;;;6.50;84.00;;;;;;5095614;28;20213;-69
2022/03/24 04:55:21;;;;;;;29.17;20.70;;;6.50;84.40;;;;;;5095199;28;20688;-69
2022/03/24 04:57:48;;;;;;;27.88;20.00;;;6.50;85.00;;;;;;5095597;28;20317;-69
2022/03/24 05:00:18;;;;;;;31.55;21.65;;;6.50;85.30;;;;;;5095202;28;20202;-69
2022/03/24 05:02:45;;;;;;;31.40;21.85;;;6.50;85.70;;;;;;5095046;28;20293;-68
2022/03/24 05:05:12;;;;;;;30.00;21.45;;;6.50;85.50;;;;;;5095200;28;20296;-69
2022/03/24 05:07:41;;;;;;;31.83;20.95;;;6.50;85.50;;;;;;5095200;28;20218;-68
2022/03/24 05:10:08;;;;;;;34.22;22.13;;;6.50;85.50;;;;;;5095317;28;20198;-69
2022/03/24 05:12:39;;;;;;;31.40;21.45;;;6.20;85.70;;;;;;5095533;28;20209;-69
2022/03/24 05:15:08;;;;;;;33.47;22.10;;;6.20;86.60;;;;;;5095173;28;20202;-68
2022/03/24 05:17:35;;;;;;;28.13;20.25;;;6.30;86.80;;;;;;5094992;28;20230;-68
2022/03/24 05:20:02;;;;;;;32.40;22.35;;;6.30;87.00;;;;;;5095973;28;20297;-69
2022/03/24 05:22:29;;;;;;;28.88;21.30;;;6.40;87.00;;;;;;5095069;28;20201;-69
2022/03/24 05:24:56;;;;;;;29.40;21.90;;;6.40;86.80;;;;;;5094918;28;20294;-69
2022/03/24 05:27:23;;;;;;;32.20;21.52;;;6.40;86.30;;;;;;5094742;28;20241;-69
2022/03/24 05:29:51;;;;;;;31.48;20.85;;;6.40;86.50;;;;;;5095044;28;20529;-68
2022/03/24 05:32:18;;;;;;;31.85;21.73;;;6.40;86.50;;;;;;5094952;28;20205;-68
2022/03/24 05:34:46;;;;;;;29.77;21.00;;;6.40;86.30;;;;;;5094460;28;20210;-69
2022/03/24 05:37:13;;;;;;;31.50;22.27;;;6.40;86.20;;;;;;5094492;28;20220;-69
2022/03/24 05:39:41;;;;;;;33.90;22.48;;;6.40;86.50;;;;;;5094802;28;20232;-69
2022/03/24 05:42:08;;;;;;;29.08;20.75;;;6.40;86.60;;;;;;5094543;28;20699;-69
2022/03/24 05:44:35;;;;;;;30.00;20.23;;;6.40;87.00;;;;;;5094506;28;20206;-69
2022/03/24 05:47:04;;;;;;;31.10;20.75;;;6.40;87.30;;;;;;5094163;28;20222;-69
2022/03/24 05:49:31;;;;;;;32.53;20.50;;;6.40;87.50;;;;;;5094618;28;20202;-69
2022/03/24 05:51:57;;;;;;;31.90;20.27;;;6.50;87.40;;;;;;5094364;28;20204;-69
2022/03/24 05:54:24;;;;;;;29.40;21.90;;;6.50;87.80;;;;;;5094294;28;20224;-68
2022/03/24 05:56:51;;;;;;;30.75;22.15;;;6.40;88.70;;;;;;5094221;28;20204;-69
2022/03/24 05:59:18;;;;;;;31.85;22.25;;;6.40;89.80;;;;;;5094640;28;20203;-69
2022/03/24 06:01:47;;;;;;;31.05;22.60;;;6.40;89.90;;;;;;5094403;28;20205;-68
2022/03/24 06:04:18;;;;;;;29.33;22.25;;;6.30;90.00;;;;;;5094492;28;20198;-69
2022/03/24 06:06:45;;;;;;;29.98;22.45;;;6.20;89.10;;;;;;5094474;28;20321;-68
2022/03/24 06:09:12;;;;;;;29.98;21.30;;;6.30;88.80;;;;;;5094219;28;20232;-69
2022/03/24 06:11:39;;;;;;;31.40;22.27;;;6.30;88.20;;;;;;5094167;28;20201;-69
2022/03/24 06:14:09;;;;;;;33.97;22.30;;;6.30;87.50;;;;;;5093138;28;20198;-68
2022/03/24 06:16:36;;;;;;;32.25;22.23;;;6.20;88.00;;;;;;5094386;28;20671;-69
2022/03/24 06:19:03;;;;;;;31.33;21.83;;;6.20;88.80;;;;;;5093709;28;20225;-69
2022/03/24 06:21:31;;;;;;;32.25;22.05;;;6.20;89.20;;;;;;5094084;28;20201;-69
2022/03/24 06:23:58;;;;;;;33.97;21.95;;;6.30;89.40;;;;;;5093769;28;20304;-69
2022/03/24 06:26:25;;;;;;;33.38;22.17;;;6.30;88.90;;;;;;5093778;28;20224;-69
2022/03/24 06:28:52;;;;;;;33.22;22.13;;;6.40;88.80;;;;;;5093473;28;20316;-69
2022/03/24 06:31:20;;;;;;;31.70;22.70;;;6.50;89.10;;;;;;5093963;28;20201;-69
2022/03/24 06:33:47;;;;;;;34.30;22.25;;;6.40;90.10;;;;;;5093860;28;20609;-69
2022/03/24 06:36:15;;;;;;;35.47;22.38;;;6.40;90.20;;;;;;5093920;28;20251;-69
2022/03/24 06:38:43;;;;;;;32.13;22.88;;;6.40;90.30;;;;;;5093473;28;20226;-69
2022/03/24 06:41:10;;;;;;;32.85;22.75;;;6.40;90.50;;;;;;5094700;28;20201;-69
2022/03/24 06:43:37;;;;;;;31.88;22.23;;;6.60;90.40;;;;;;5093523;28;20209;-69
2022/03/24 06:46:06;;;;;;;35.08;23.67;;;6.60;90.40;;;;;;5093685;28;20317;-69
2022/03/24 06:48:33;;;;;;;35.60;23.27;;;6.70;90.10;;;;;;5093701;28;20271;-69
2022/03/24 06:51:00;;;;;;;33.15;23.52;;;6.70;89.80;;;;;;5093793;28;20202;-69
2022/03/24 06:53:27;;;;;;;37.03;24.67;;;6.80;90.00;;;;;;5093345;28;20292;-69
2022/03/24 06:55:55;;;;;;;35.03;23.10;;;6.90;89.00;;;;;;5093634;28;20580;-69
2022/03/24 06:58:22;;;;;;;31.15;22.33;;;7.00;89.20;;;;;;5093251;28;20236;-69
2022/03/24 07:00:49;;;;;;;30.73;22.38;;;7.00;88.80;;;;;;5093353;28;20664;-69
2022/03/24 07:03:16;;;;;;;36.50;23.35;;;7.20;88.00;;;;;;5093498;28;20206;-68
2022/03/24 07:05:42;;;;;;;31.65;22.38;;;7.10;88.00;;;;;;5093541;28;20292;-69
2022/03/24 07:08:09;;;;;;;33.35;23.23;;;7.10;88.20;;;;;;5093289;28;20332;-69
2022/03/24 07:10:36;;;;;;;33.88;23.35;;;7.00;88.30;;;;;;5093550;28;20296;-69
2022/03/24 07:13:05;;;;;;;30.95;22.50;;;6.90;87.10;;;;;;5093448;28;20201;-69
2022/03/24 07:15:33;;;;;;;32.47;22.10;;;6.80;88.00;;;;;;5094097;28;20206;-71
2022/03/24 07:17:59;;;;;;;32.60;20.95;;;6.80;89.10;;;;;;5078644;28;20276;-69
2022/03/24 07:20:27;;;;;;;29.50;22.42;;;6.80;88.20;;;;;;5091886;28;20209;-67
2022/03/24 07:22:57;;;;;;;31.90;22.00;;;6.90;89.30;;;;;;5092360;28;20202;-68
2022/03/24 07:25:24;;;;;;;30.42;22.88;;;7.00;89.40;;;;;;5092865;28;20622;-67
2022/03/24 07:27:51;;;;;;;36.88;21.75;;;7.00;89.00;;;;;;5095868;28;20241;-67
2022/03/24 07:30:19;;;;;;;29.52;22.10;;;6.90;88.00;;;;;;5096010;28;20206;-67
2022/03/24 07:32:46;;;;;;;28.50;21.15;;;6.90;89.30;;;;;;5095840;28;20205;-67
2022/03/24 07:35:14;;;;;;;28.45;21.70;;;7.00;90.00;;;;;;5095874;28;20229;-68
2022/03/24 07:37:41;;;;;;;34.63;22.85;;;7.00;88.80;;;;;;5095569;28;20703;-67
2022/03/24 07:40:10;;;;;;;29.98;22.17;;;6.90;89.40;;;;;;5095453;28;20202;-67
2022/03/24 07:42:37;;;;;;;29.10;21.95;;;6.90;89.20;;;;;;5095680;28;20201;-67
2022/03/24 07:45:05;;;;;;;31.33;20.67;;;6.90;90.30;;;;;;5095780;28;20209;-67
2022/03/24 07:47:35;;;;;;;27.48;20.42;;;7.00;90.50;;;;;;5095472;28;20260;-67
2022/03/24 07:50:02;;;;;;;28.10;21.65;;;7.20;90.10;;;;;;5095611;28;20654;-68
2022/03/24 07:52:32;;;;;;;32.67;22.98;;;7.40;89.50;;;;;;5095522;28;20259;-67
2022/03/24 07:55:05;;;;;;;34.35;23.10;;;7.40;90.00;;;;;;5095798;28;20256;-68
2022/03/24 07:57:33;;;;;;;30.85;23.10;;;7.50;88.70;;;;;;5095756;28;20233;-68
2022/03/24 08:00:00;;;;;;;29.63;22.38;;;7.60;88.30;;;;;;5095399;28;20205;-68
2022/03/24 08:02:27;;;;;;;36.97;22.98;;;7.60;88.60;;;;;;5095716;28;20228;-68
2022/03/24 08:04:55;;;;;;;31.13;22.45;;;7.60;87.00;;;;;;5095107;28;20204;-68
2022/03/24 08:07:23;;;;;;;29.67;22.27;;;7.60;88.90;;;;;;5095555;28;20317;-68
2022/03/24 08:09:50;;;;;;;39.45;22.38;;;7.80;87.40;;;;;;5096224;28;20687;-67
2022/03/24 08:12:18;;;;;;;39.35;23.83;;;7.90;88.70;;;;;;5096302;28;20656;-67
2022/03/24 08:14:45;;;;;;;32.28;23.38;;;8.10;86.10;;;;;;5096162;28;20206;-67
2022/03/24 08:17:13;;;;;;;31.02;23.67;;;8.10;86.60;;;;;;5096254;28;20314;-67
2022/03/24 08:19:39;;;;;;;32.35;23.27;;;8.20;86.80;;;;;;5096341;28;20206;-67
2022/03/24 08:22:08;;;;;;;36.38;24.60;;;8.40;87.90;;;;;;5096183;28;20202;-67
2022/03/24 08:24:35;;;;;;;34.17;24.50;;;8.40;84.90;;;;;;5095933;28;20198;-67
2022/03/24 08:27:01;;;;;;;33.40;23.92;;;8.50;84.30;;;;;;5096071;28;20221;-67
2022/03/24 08:29:28;;;;;;;28.25;22.67;;;8.60;85.60;;;;;;5096076;28;20206;-67
2022/03/24 08:31:55;;;;;;;32.40;22.90;;;8.70;86.30;;;;;;5096028;28;20206;-67
2022/03/24 08:34:22;;;;;;;32.72;23.88;;;8.80;85.70;;;;;;5095888;28;20205;-67
2022/03/24 08:36:49;;;;;;;33.55;23.95;;;9.00;85.00;;;;;;5095336;28;20289;-67
2022/03/24 08:39:17;;;;;;;34.55;22.88;;;9.10;84.60;;;;;;5095793;28;20297;-67
2022/03/24 08:41:44;;;;;;;30.63;22.73;;;9.20;85.00;;;;;;5095904;28;20205;-67
2022/03/24 08:44:11;;;;;;;32.17;24.30;;;9.50;83.90;;;;;;5095542;28;20697;-67
2022/03/24 08:46:38;;;;;;;32.35;24.10;;;9.70;80.40;;;;;;5095673;28;20753;-67
2022/03/24 08:49:05;;;;;;;30.75;23.65;;;9.90;79.80;;;;;;5095773;28;20226;-67
2022/03/24 08:51:32;;;;;;;32.30;24.52;;;10.00;77.10;;;;;;5095765;28;20653;-67
2022/03/24 08:53:59;;;;;;;32.05;23.90;;;10.20;77.50;;;;;;5095420;28;20579;-67
2022/03/24 08:56:27;;;;;;;34.45;23.33;;;10.40;77.10;;;;;;5095627;28;20205;-67
2022/03/24 08:58:54;;;;;;;30.02;22.73;;;10.70;74.90;;;;;;5095297;28;20226;-67
2022/03/24 09:01:22;;;;;;;32.78;23.38;;;11.20;74.20;;;;;;5095548;28;20206;-67
2022/03/24 09:03:51;;;;;;;29.65;23.13;;;11.80;72.00;;;;;;5095323;28;20564;-68
2022/03/24 09:06:18;;;;;;;31.35;23.20;;;12.30;70.00;;;;;;5095320;28;20256;-67
2022/03/24 09:08:44;;;;;;;33.08;24.75;;;12.50;68.50;;;;;;5095380;28;20222;-67
2022/03/24 09:11:11;;;;;;;30.15;24.00;;;12.60;68.40;;;;;;5095330;28;20202;-67
2022/03/24 09:13:40;;;;;;;33.83;24.30;;;12.70;66.60;;;;;;5094960;28;20202;-67
2022/03/24 09:16:07;;;;;;;33.70;24.27;;;12.70;64.80;;;;;;5095045;28;20664;-67
2022/03/24 09:18:34;;;;;;;34.17;24.60;;;12.40;65.80;;;;;;5094892;28;20226;-67
2022/03/24 09:21:01;;;;;;;40.35;24.45;;;12.20;65.00;;;;;;5094997;28;20204;-67
2022/03/24 09:23:29;;;;;;;32.97;25.80;;;12.20;65.90;;;;;;5094861;28;20198;-68
2022/03/24 09:25:57;;;;;;;30.70;24.70;;;12.30;65.50;;;;;;5095031;28;20580;-67
2022/03/24 09:28:26;;;;;;;33.15;25.23;;;12.40;65.40;;;;;;5094812;28;20226;-67
2022/03/24 09:30:56;;;;;;;31.30;23.40;;;12.40;64.40;;;;;;5095011;28;20230;-67
2022/03/24 09:33:23;;;;;;;32.00;23.25;;;12.40;66.80;;;;;;5094933;28;20206;-68
2022/03/24 09:35:50;;;;;;;35.45;25.45;;;12.70;67.30;;;;;;5094872;28;20283;-67
2022/03/24 09:38:18;;;;;;;34.50;24.90;;;12.90;65.30;;;;;;5094567;28;20580;-67
2022/03/24 09:40:45;;;;;;;34.25;24.05;;;12.90;62.40;;;;;;5094789;28;20228;-68
2022/03/24 09:43:14;;;;;;;39.78;26.55;;;12.90;63.40;;;;;;5094517;28;20206;-68
2022/03/24 09:45:42;;;;;;;38.20;25.85;;;13.20;62.90;;;;;;5094689;28;20202;-68
2022/03/24 09:48:12;;;;;;;36.28;25.30;;;13.40;63.30;;;;;;5094370;28;20230;-67
2022/03/24 09:50:39;;;;;;;32.75;26.25;;;13.80;62.40;;;;;;5093505;28;20205;-68
2022/03/24 09:53:06;;;;;;;35.15;25.83;;;14.80;60.30;;;;;;5094352;28;20215;-68
2022/03/24 09:55:36;;;;;;;32.30;25.02;;;15.20;55.70;;;;;;5094519;28;20212;-68
2022/03/24 09:58:04;;;;;;;33.15;25.65;;;16.10;55.90;;;;;;5094712;28;20222;-67
2022/03/24 10:00:31;;;;;;;34.10;26.65;;;17.40;53.60;;;;;;5094429;28;20204;-68
2022/03/24 10:03:12;;;;;;;35.72;28.38;;;18.60;49.70;;;;;;5094181;28;20202;-68
2022/03/24 10:05:54;;;;;;;33.43;26.00;;;18.70;47.90;;;;;;5094251;28;20208;-69
2022/03/24 10:08:21;;;;;;;35.20;26.30;;;19.40;46.70;;;;;;5094213;28;20490;-68
2022/03/24 10:10:48;;;;;;;35.07;26.07;;;19.60;42.50;;;;;;5094084;28;20478;-68
2022/03/24 10:13:24;;;;;;;31.90;27.13;;;20.30;42.70;;;;;;5093981;28;20493;-68
2022/03/24 10:15:51;;;;;;;37.20;28.10;;;20.60;41.90;;;;;;5094234;28;20827;-68
2022/03/24 10:18:19;;;;;;;36.80;27.57;;;20.90;41.30;;;;;;5093905;28;20460;-68
2022/03/24 10:20:46;;;;;;;39.60;28.10;;;21.00;39.30;;;;;;5094093;28;20443;-68
2022/03/24 10:23:13;;;;;;;30.97;26.77;;;21.40;38.50;;;;;;5093807;28;20436;-68
2022/03/24 10:25:42;;;;;;;28.93;25.87;;;22.80;37.20;;;;;;5094033;28;20797;-69
2022/03/24 10:28:10;;;;;;;30.90;25.80;;;23.10;32.40;;;;;;5093604;28;20984;-68
2022/03/24 10:30:47;;;;;;;30.80;25.83;;;22.50;30.70;;;;;;5093626;28;20449;-68
2022/03/24 10:33:28;;;;;;;27.93;23.07;;;22.60;33.40;;;;;;5093748;28;20437;-69
2022/03/24 10:36:12;;;;;;;26.90;24.00;;;22.60;31.60;;;;;;5093957;28;20450;-68
2022/03/24 10:38:41;;;;;;;27.10;23.80;;;23.20;31.50;;;;;;5094384;28;20467;-68
2022/03/24 10:41:20;;;;;;;26.93;23.53;;;23.40;30.80;;;;;;5093827;28;20481;-69
2022/03/24 10:43:49;;;;;;;28.07;24.37;;;23.80;30.00;;;;;;5093460;28;20921;-69
2022/03/24 10:46:17;;;;;;;28.27;24.27;;;23.30;30.30;;;;;;5093730;28;20450;-69
2022/03/24 10:48:47;;;;;;;26.20;23.50;;;23.30;30.00;;;;;;5093649;28;20486;-66
2022/03/24 10:51:22;;;;;;;30.17;25.40;;;23.60;30.40;;;;;;5094124;28;20814;-65
2022/03/24 10:53:50;;;;;;;30.03;24.10;;;22.50;30.90;;;;;;5093426;28;20938;-65
2022/03/24 10:56:21;;;;;;;26.33;22.63;;;22.40;31.30;;;;;;5093443;28;20440;-65
2022/03/24 10:58:55;;;;;;;27.27;24.47;;;22.00;31.80;;;;;;5093698;28;20796;-66
2022/03/24 11:01:26;;;;;;;34.63;26.07;;;22.10;32.50;;;;;;5096013;28;20436;-66
2022/03/24 11:03:56;;;;;;;36.30;24.87;;;22.00;32.60;;;;;;5097463;28;20542;-65
2022/03/24 11:06:23;;;;;;;30.03;24.40;;;22.20;33.00;;;;;;5097752;28;20441;-66
2022/03/24 11:08:55;;;;;;;29.03;23.70;;;22.50;32.50;;;;;;5097339;28;20981;-66
2022/03/24 11:11:23;;;;;;;26.80;23.80;;;23.20;32.30;;;;;;5097674;28;20825;-66
2022/03/24 11:13:52;;;;;;;27.17;23.90;;;23.60;30.70;;;;;;5097328;28;20448;-66
2022/03/24 11:16:21;;;;;;;29.03;25.07;;;23.90;31.60;;;;;;5097482;28;20478;-65
2022/03/24 11:18:50;;;;;;;28.60;25.50;;;24.50;31.40;;;;;;5097178;28;20468;-66
2022/03/24 11:21:24;;;;;;;29.73;26.63;;;25.70;30.50;;;;;;5097480;28;20440;-66
2022/03/24 11:23:53;;;;;;;28.10;25.20;;;26.10;30.00;;;;;;5097177;28;20452;-66
2022/03/24 11:26:21;;;;;;;28.80;24.47;;;25.90;28.40;;;;;;5097260;28;20448;-66
2022/03/24 11:28:50;;;;;;;27.37;24.53;;;25.70;28.30;;;;;;5097061;28;20487;-66
2022/03/24 11:31:18;;;;;;;26.20;23.33;;;24.20;28.30;;;;;;5097473;28;20451;-66
2022/03/24 11:33:47;;;;;;;26.23;22.60;;;24.00;28.00;;;;;;5097089;28;20435;-66
2022/03/24 11:36:16;;;;;;;24.33;21.53;;;23.00;29.00;;;;;;5097195;28;20444;-66
2022/03/24 11:38:48;;;;;;;23.97;20.73;;;23.40;29.60;;;;;;5097092;28;20463;-66
2022/03/24 11:41:26;;;;;;;21.87;19.60;;;24.10;28.90;;;;;;5097109;28;20519;-66
2022/03/24 11:43:56;;;;;;;27.60;22.37;;;25.00;28.20;;;;;;5096802;28;20444;-66
2022/03/24 11:46:32;;;;;;;22.80;20.30;;;25.00;27.10;;;;;;5097018;28;20461;-66
2022/03/24 11:49:29;;;;;;;24.87;21.80;;;24.20;27.90;;;;;;5096897;28;20907;-66
2022/03/24 11:52:21;;;;;;;25.97;21.63;;;23.40;27.50;;;;;;5034594;28;20523;-68
2022/03/24 11:54:54;;;;;;;25.50;21.03;;;23.10;28.10;;;;;;5092849;28;20504;-68
2022/03/24 11:57:31;;;;;;;21.93;19.63;;;22.70;28.60;;;;;;5096560;28;21009;-69
2022/03/24 12:00:46;;;;;;;22.10;19.70;;;23.30;29.90;;;;;;5096521;28;20437;-68
2022/03/24 12:03:44;;;;;;;26.00;21.33;;;24.00;28.50;;;;;;5096334;28;20436;-69
2022/03/24 12:06:13;;;;;;;22.27;19.90;;;24.30;27.70;;;;;;5091975;28;20531;-68
2022/03/24 12:08:48;;;;;;;25.63;20.97;;;23.60;27.20;;;;;;5096191;28;20496;-65
2022/03/24 12:11:40;;;;;;;22.53;20.23;;;22.80;28.60;;;;;;5096707;28;20438;-65
2022/03/24 12:14:10;;;;;;;22.57;20.00;;;22.00;28.40;;;;;;5095782;28;20448;-66
2022/03/24 12:16:38;;;;;;;25.80;19.77;;;21.30;29.50;;;;;;5096556;28;20937;-65
2022/03/24 12:19:08;;;;;;;21.30;18.90;;;21.10;30.00;;;;;;5096075;28;20470;-66
2022/03/24 12:21:35;;;;;;;22.90;18.63;;;21.20;29.80;;;;;;5096492;28;20447;-66
2022/03/24 12:24:10;;;;;;;19.47;16.97;;;21.20;30.10;;;;;;5096114;28;20447;-66
2022/03/24 12:26:40;;;;;;;19.97;17.83;;;21.00;30.10;;;;;;5096091;28;20483;-65
2022/03/24 12:29:21;;;;;;;24.70;19.67;;;20.70;29.80;;;;;;5095772;28;20497;-65
2022/03/24 12:31:59;;;;;;;20.08;17.80;;;19.90;30.60;;;;;;5095930;28;20923;-65
2022/03/24 12:34:31;;;;;;;25.27;18.40;;;19.60;31.90;;;;;;5096198;28;20214;-66
2022/03/24 12:36:59;;;;;;;22.15;17.67;;;19.50;31.50;;;;;;5095986;28;20532;-66
2022/03/24 12:39:37;;;;;;;20.20;17.20;;;19.50;31.10;;;;;;5096029;28;20195;-66
2022/03/24 12:42:12;;;;;;;21.50;17.20;;;19.80;31.30;;;;;;5095926;28;20930;-65
2022/03/24 12:44:52;;;;;;;19.63;16.83;;;19.60;31.00;;;;;;5095723;28;20798;-65